createdAt,value
2019-04-04T00:00:28.907Z,17.98
2019-04-04T00:05:36.536Z,18.00
2019-04-04T00:10:44.544Z,17.67
2019-04-04T00:15:50.938Z,17.69
2019-04-04T00:20:57.070Z,17.52
2019-04-04T00:26:03.505Z,17.68
2019-04-04T00:31:12.761Z,17.60
2019-04-04T00:36:21.155Z,17.57
2019-04-04T00:41:29.421Z,17.47
2019-04-04T00:51:53.932Z,17.47
2019-04-04T00:57:00.019Z,17.41
2019-04-04T01:02:07.217Z,17.30
2019-04-04T01:07:17.807Z,17.10
2019-04-04T01:12:29.740Z,17.24
2019-04-04T01:17:37.538Z,17.24
2019-04-04T01:22:46.183Z,17.26
2019-04-04T01:27:54.859Z,17.09
2019-04-04T01:33:03.813Z,16.97
2019-04-04T01:38:11.539Z,16.84
2019-04-04T01:43:19.058Z,17.07
2019-04-04T01:48:29.357Z,17.02
2019-04-04T01:53:37.010Z,16.94
2019-04-04T01:58:44.630Z,16.82
2019-04-04T02:03:54.437Z,16.72
2019-04-04T02:09:03.623Z,16.55
2019-04-04T02:14:12.834Z,16.59
2019-04-04T02:19:24.841Z,16.57
2019-04-04T02:24:42.082Z,16.36
2019-04-04T02:29:53.139Z,16.39
2019-04-04T02:35:04.478Z,16.36
2019-04-04T02:40:14.977Z,16.28
2019-04-04T02:45:23.680Z,16.21
2019-04-04T02:50:34.813Z,16.39
2019-04-04T02:55:42.358Z,16.06
2019-04-04T03:00:50.707Z,16.06
2019-04-04T03:06:02.593Z,15.93
2019-04-04T03:11:13.308Z,15.89
2019-04-04T03:16:22.765Z,15.73
2019-04-04T03:21:34.140Z,15.86
2019-04-04T03:26:42.944Z,15.75
2019-04-04T03:31:53.662Z,15.66
2019-04-04T03:37:06.652Z,15.34
2019-04-04T03:42:17.294Z,15.41
2019-04-04T03:47:29.132Z,15.44
2019-04-04T03:52:43.325Z,15.40
2019-04-04T03:57:55.080Z,15.13
2019-04-04T04:03:06.045Z,15.14
2019-04-04T04:08:13.485Z,15.23
2019-04-04T04:13:22.779Z,15.19
2019-04-04T04:18:30.623Z,15.17
2019-04-04T04:23:37.824Z,15.17
2019-04-04T04:28:44.665Z,14.99
2019-04-04T04:33:53.524Z,14.98
2019-04-04T04:39:05.366Z,14.89
2019-04-04T04:44:12.142Z,14.83
2019-04-04T04:49:23.111Z,14.94
2019-04-04T04:54:28.274Z,14.96
2019-04-04T04:59:34.033Z,14.85
2019-04-04T05:04:40.013Z,14.92
2019-04-04T05:09:47.715Z,14.86
2019-04-04T05:14:53.367Z,14.70
2019-04-04T05:20:00.572Z,14.82
2019-04-04T05:25:09.010Z,14.97
2019-04-04T05:30:16.770Z,15.00
2019-04-04T05:35:23.747Z,15.14
2019-04-04T05:40:30.759Z,14.98
2019-04-04T05:45:36.915Z,15.05
2019-04-04T05:50:44.380Z,15.09
2019-04-04T05:55:50.658Z,15.18
2019-04-04T06:00:57.807Z,15.19
2019-04-04T06:06:03.704Z,15.20
2019-04-04T06:11:10.510Z,15.38
2019-04-04T06:16:17.726Z,15.55
2019-04-04T06:21:23.298Z,15.71
2019-04-04T06:26:28.878Z,15.66
2019-04-04T06:31:34.994Z,15.67
2019-04-04T06:36:40.932Z,15.72
2019-04-04T06:41:46.489Z,16.07
2019-04-04T06:46:53.442Z,16.07
2019-04-04T06:51:59.788Z,16.12
2019-04-04T06:57:05.946Z,16.11
2019-04-04T07:02:12.064Z,16.36
2019-04-04T07:07:17.793Z,16.77
2019-04-04T07:12:28.248Z,16.77
2019-04-04T07:17:31.078Z,17.06
2019-04-04T07:22:38.333Z,17.31
2019-04-04T07:27:45.368Z,17.31
2019-04-04T07:32:51.835Z,17.53
2019-04-04T07:37:57.710Z,17.52
2019-04-04T07:43:03.439Z,17.59
2019-04-04T07:48:12.091Z,17.61
2019-04-04T07:53:17.291Z,17.93
2019-04-04T07:58:23.586Z,18.08
2019-04-04T08:03:31.179Z,18.24
2019-04-04T08:08:37.129Z,18.25
2019-04-04T08:13:42.849Z,17.96
2019-04-04T08:18:48.608Z,17.77
2019-04-04T08:23:54.175Z,18.07
2019-04-04T08:28:59.941Z,18.05
2019-04-04T08:34:06.526Z,18.33
2019-04-04T08:39:12.810Z,18.51
2019-04-04T08:44:18.760Z,18.54
2019-04-04T08:49:24.809Z,18.51
2019-04-04T08:54:30.466Z,18.86
2019-04-04T08:59:39.108Z,19.27
2019-04-04T09:04:45.899Z,19.59
2019-04-04T09:09:51.678Z,19.95
2019-04-04T09:14:59.079Z,20.28
2019-04-04T09:20:09.550Z,20.16
2019-04-04T09:25:16.541Z,20.51
2019-04-04T09:30:22.886Z,21.08
2019-04-04T09:35:29.143Z,21.43
2019-04-04T09:40:37.118Z,21.47
2019-04-04T09:45:43.262Z,21.99
2019-04-04T09:50:49.743Z,22.15
2019-04-04T09:55:55.930Z,22.04
2019-04-04T10:01:06.396Z,22.74
2019-04-04T10:06:13.275Z,23.05
2019-04-04T10:11:19.168Z,23.41
2019-04-04T10:16:25.683Z,23.84
2019-04-04T10:21:31.502Z,24.07
2019-04-04T10:26:38.054Z,24.58
2019-04-04T10:31:45.088Z,24.69
2019-04-04T10:36:51.598Z,24.99
2019-04-04T10:41:58.970Z,25.46
2019-04-04T10:47:07.191Z,25.71
2019-04-04T10:52:12.841Z,25.94
2019-04-04T10:57:19.893Z,26.32
2019-04-04T11:02:27.509Z,26.75
2019-04-04T11:07:35.533Z,26.81
2019-04-04T11:12:44.797Z,26.70
2019-04-04T11:17:51.411Z,26.44
2019-04-04T11:22:57.689Z,26.79
2019-04-04T11:28:04.979Z,27.02
2019-04-04T11:33:11.131Z,27.52
2019-04-04T11:38:17.448Z,27.26
2019-04-04T11:43:24.073Z,26.92
2019-04-04T11:48:34.562Z,27.66
2019-04-04T11:53:41.519Z,28.09
2019-04-04T11:58:48.852Z,28.24
2019-04-04T12:03:55.547Z,28.52
2019-04-04T12:09:02.382Z,28.65
2019-04-04T12:14:09.752Z,28.27
2019-04-04T12:19:15.695Z,27.84
2019-04-04T12:24:21.615Z,27.85
2019-04-04T12:29:27.830Z,27.28
2019-04-04T12:34:35.522Z,28.10
2019-04-04T12:39:44.352Z,28.69
2019-04-04T12:44:51.185Z,28.81
2019-04-04T12:49:58.263Z,28.67
2019-04-04T12:55:07.353Z,29.15
2019-04-04T13:00:14.083Z,29.03
2019-04-04T13:05:22.458Z,28.88
2019-04-04T13:10:33.246Z,28.58
2019-04-04T13:15:39.876Z,28.72
2019-04-04T13:20:48.959Z,28.79
2019-04-04T13:26:00.142Z,29.22
2019-04-04T13:31:08.860Z,29.09
2019-04-04T16:25:48.885Z,30.23
2019-04-04T16:31:00.111Z,31.15
2019-04-04T16:36:09.092Z,30.67
2019-04-04T16:41:16.607Z,30.91
2019-04-04T16:46:25.781Z,31.44
2019-04-04T16:51:35.531Z,31.19
2019-04-04T16:56:43.272Z,30.95
2019-04-04T17:01:56.542Z,31.33
2019-04-04T17:07:04.671Z,32.15
2019-04-04T17:12:15.503Z,32.48
2019-04-04T17:17:23.879Z,31.33
2019-04-04T17:22:34.097Z,29.61
2019-04-04T17:27:49.159Z,28.75
2019-04-04T17:32:58.952Z,28.32
2019-04-04T17:38:08.631Z,27.75
2019-04-04T17:43:18.572Z,27.45
2019-04-04T17:48:31.524Z,26.83
2019-04-04T17:53:40.144Z,26.54
2019-04-04T17:58:48.389Z,26.00
2019-04-04T18:03:58.308Z,26.05
2019-04-04T18:09:11.247Z,25.92
2019-04-04T18:14:22.677Z,25.88
2019-04-04T18:19:31.583Z,25.97
2019-04-04T18:24:39.378Z,25.81
2019-04-04T18:29:45.649Z,25.79
2019-04-04T18:34:51.571Z,25.67
2019-04-04T18:39:58.113Z,25.57
2019-04-04T18:45:07.084Z,25.59
2019-04-04T18:50:16.929Z,25.56
2019-04-04T18:55:24.373Z,25.44
2019-04-04T19:00:31.331Z,25.30
2019-04-04T19:05:39.958Z,25.27
2019-04-04T19:10:46.965Z,24.89
2019-04-04T19:15:54.599Z,24.89
2019-04-04T19:21:02.329Z,24.58
2019-04-04T19:26:10.305Z,24.33
2019-04-04T19:31:17.046Z,24.18
2019-04-04T19:36:23.151Z,24.06
2019-04-04T19:41:31.587Z,24.09
2019-04-04T19:46:37.978Z,23.93
2019-04-04T19:51:44.696Z,23.89
2019-04-04T19:56:50.442Z,23.67
2019-04-04T20:01:57.856Z,23.57
2019-04-04T20:07:05.238Z,23.49
2019-04-04T20:12:11.068Z,23.51
2019-04-04T20:17:17.527Z,23.39
2019-04-04T20:22:23.115Z,23.27
2019-04-04T20:27:29.278Z,23.32
2019-04-04T20:32:35.092Z,23.35
2019-04-04T20:37:40.850Z,22.78
2019-04-04T20:42:47.432Z,22.91
2019-04-04T20:47:52.999Z,22.76
2019-04-04T20:52:58.976Z,22.24
2019-04-04T20:58:04.784Z,22.01
2019-04-04T21:03:10.435Z,21.17
2019-04-04T21:08:16.288Z,21.58
2019-04-04T21:13:22.127Z,21.29
2019-04-04T21:18:27.966Z,21.31
2019-04-04T21:23:33.670Z,21.17
2019-04-04T21:28:41.004Z,21.10
2019-04-04T21:33:46.754Z,20.89
2019-04-04T21:38:52.314Z,20.77
2019-04-04T21:44:08.118Z,20.83
2019-04-04T21:49:05.623Z,20.69
2019-04-04T21:54:11.737Z,20.69
2019-04-04T21:59:18.833Z,20.48
2019-04-04T22:04:24.864Z,20.36
2019-04-04T22:09:33.622Z,20.47
2019-04-04T22:14:40.407Z,20.43
2019-04-04T22:19:46.062Z,20.38
2019-04-04T22:24:52.184Z,20.16
2019-04-04T22:29:58.400Z,20.18
2019-04-04T22:35:06.107Z,20.06
2019-04-04T22:40:12.473Z,20.10
2019-04-04T22:45:18.186Z,19.90
2019-04-04T22:50:23.997Z,19.91
2019-04-04T22:55:30.072Z,19.90
2019-04-04T23:00:36.100Z,19.55
2019-04-04T23:05:41.673Z,19.42
2019-04-04T23:10:47.951Z,19.41
2019-04-04T23:15:53.832Z,19.50
2019-04-04T23:20:59.686Z,19.40
2019-04-04T23:26:05.503Z,19.49
2019-04-04T23:31:11.607Z,19.32
2019-04-04T23:36:17.570Z,19.21
2019-04-04T23:41:24.070Z,19.17
2019-04-04T23:46:30.147Z,19.00
2019-04-04T23:51:36.362Z,19.09
2019-04-04T23:56:42.056Z,18.77
